sensor_id;sensor_type;location;lat;lon;timestamp;pressure;altitude;pressure_sealevel;temperature;humidity
59110;BME280;44895;47.438;18.978;2022-07-22T00:02:59;67901.72;;;-146.49;100.00
59110;BME280;44895;47.438;18.978;2022-07-22T00:07:01;67901.72;;;-146.49;100.00
59110;BME280;44895;47.438;18.978;2022-07-22T00:11:05;67901.72;;;-146.49;100.00
59110;BME280;44895;47.438;18.978;2022-07-22T00:15:07;67901.72;;;-146.49;100.00
59110;BME280;44895;47.438;18.978;2022-07-22T00:19:10;67901.72;;;-146.49;100.00
59110;BME280;44895;47.438;18.978;2022-07-22T00:23:12;67901.72;;;-146.49;100.00
59110;BME280;44895;47.438;18.978;2022-07-22T00:27:14;67901.72;;;-146.49;100.00
59110;BME280;44895;47.438;18.978;2022-07-22T00:31:17;67901.72;;;-146.49;100.00
59110;BME280;44895;47.438;18.978;2022-07-22T00:35:19;67901.72;;;-146.49;100.00
59110;BME280;44895;47.438;18.978;2022-07-22T00:39:21;67901.72;;;-146.49;100.00
59110;BME280;44895;47.438;18.978;2022-07-22T00:43:24;67901.72;;;-146.49;100.00
59110;BME280;44895;47.438;18.978;2022-07-22T00:47:27;67901.72;;;-146.49;100.00
59110;BME280;44895;47.438;18.978;2022-07-22T00:51:30;67901.72;;;-146.49;100.00
59110;BME280;44895;47.438;18.978;2022-07-22T00:55:34;67901.72;;;-146.49;100.00
59110;BME280;44895;47.438;18.978;2022-07-22T00:59:36;67901.72;;;-146.49;100.00
59110;BME280;44895;47.438;18.978;2022-07-22T01:03:39;67901.72;;;-146.49;100.00
59110;BME280;44895;47.438;18.978;2022-07-22T01:07:41;67901.72;;;-146.49;100.00
59110;BME280;44895;47.438;18.978;2022-07-22T01:11:44;67901.72;;;-146.49;100.00
59110;BME280;44895;47.438;18.978;2022-07-22T01:15:46;67901.72;;;-146.49;100.00
59110;BME280;44895;47.438;18.978;2022-07-22T01:19:48;67901.72;;;-146.49;100.00
59110;BME280;44895;47.438;18.978;2022-07-22T01:23:50;67901.72;;;-146.49;100.00
59110;BME280;44895;47.438;18.978;2022-07-22T01:27:53;67901.72;;;-146.49;100.00
59110;BME280;44895;47.438;18.978;2022-07-22T01:31:55;67901.72;;;-146.49;100.00
59110;BME280;44895;47.438;18.978;2022-07-22T01:35:58;67901.72;;;-146.49;100.00
59110;BME280;44895;47.438;18.978;2022-07-22T01:40:01;67901.72;;;-146.49;100.00
59110;BME280;44895;47.438;18.978;2022-07-22T01:44:03;67901.72;;;-146.49;100.00
59110;BME280;44895;47.438;18.978;2022-07-22T01:48:06;67901.72;;;-146.49;100.00
59110;BME280;44895;47.438;18.978;2022-07-22T01:52:08;67901.72;;;-146.49;100.00
59110;BME280;44895;47.438;18.978;2022-07-22T01:56:10;67901.72;;;-146.49;100.00
59110;BME280;44895;47.438;18.978;2022-07-22T02:00:21;67901.72;;;-146.49;100.00
59110;BME280;44895;47.438;18.978;2022-07-22T02:04:23;67901.72;;;-146.49;100.00
59110;BME280;44895;47.438;18.978;2022-07-22T02:08:26;67901.72;;;-146.49;100.00
59110;BME280;44895;47.438;18.978;2022-07-22T02:12:47;67901.72;;;-146.49;100.00
59110;BME280;44895;47.438;18.978;2022-07-22T02:16:49;67901.72;;;-146.49;100.00
59110;BME280;44895;47.438;18.978;2022-07-22T02:20:51;67901.72;;;-146.49;100.00
59110;BME280;44895;47.438;18.978;2022-07-22T02:24:54;67901.72;;;-146.49;100.00
59110;BME280;44895;47.438;18.978;2022-07-22T02:28:56;67901.72;;;-146.49;100.00
59110;BME280;44895;47.438;18.978;2022-07-22T02:32:58;67901.72;;;-146.49;100.00
59110;BME280;44895;47.438;18.978;2022-07-22T02:37:01;67901.72;;;-146.49;100.00
59110;BME280;44895;47.438;18.978;2022-07-22T02:41:04;67901.72;;;-146.49;100.00
59110;BME280;44895;47.438;18.978;2022-07-22T02:45:08;67901.72;;;-146.49;100.00
59110;BME280;44895;47.438;18.978;2022-07-22T02:49:10;67901.72;;;-146.49;100.00
59110;BME280;44895;47.438;18.978;2022-07-22T02:53:14;67901.72;;;-146.49;100.00
59110;BME280;44895;47.438;18.978;2022-07-22T02:57:16;67901.72;;;-146.49;100.00
59110;BME280;44895;47.438;18.978;2022-07-22T03:01:19;67901.72;;;-146.49;100.00
59110;BME280;44895;47.438;18.978;2022-07-22T03:05:27;67901.72;;;-146.49;100.00
59110;BME280;44895;47.438;18.978;2022-07-22T03:09:42;67901.72;;;-146.49;100.00
59110;BME280;44895;47.438;18.978;2022-07-22T03:13:45;67901.72;;;-146.49;100.00
59110;BME280;44895;47.438;18.978;2022-07-22T03:17:47;67901.72;;;-146.49;100.00
59110;BME280;44895;47.438;18.978;2022-07-22T03:21:50;67901.72;;;-146.49;100.00
59110;BME280;44895;47.438;18.978;2022-07-22T03:25:52;67901.72;;;-146.49;100.00
59110;BME280;44895;47.438;18.978;2022-07-22T03:29:54;67901.72;;;-146.49;100.00
59110;BME280;44895;47.438;18.978;2022-07-22T03:33:56;67901.72;;;-146.49;100.00
59110;BME280;44895;47.438;18.978;2022-07-22T03:37:59;67901.72;;;-146.49;100.00
59110;BME280;44895;47.438;18.978;2022-07-22T03:42:03;67901.72;;;-146.49;100.00
59110;BME280;44895;47.438;18.978;2022-07-22T03:46:11;67901.72;;;-146.49;100.00
59110;BME280;44895;47.438;18.978;2022-07-22T03:50:15;67901.72;;;-146.49;100.00
59110;BME280;44895;47.438;18.978;2022-07-22T03:54:17;67901.72;;;-146.49;100.00
59110;BME280;44895;47.438;18.978;2022-07-22T03:58:20;67901.72;;;-146.49;100.00
59110;BME280;44895;47.438;18.978;2022-07-22T04:02:23;67901.72;;;-146.49;100.00
59110;BME280;44895;47.438;18.978;2022-07-22T04:06:25;67901.72;;;-146.49;100.00
59110;BME280;44895;47.438;18.978;2022-07-22T04:10:35;67901.72;;;-146.49;100.00
59110;BME280;44895;47.438;18.978;2022-07-22T04:14:37;67901.72;;;-146.49;100.00
59110;BME280;44895;47.438;18.978;2022-07-22T04:18:39;67901.72;;;-146.49;100.00
59110;BME280;44895;47.438;18.978;2022-07-22T04:22:41;67901.72;;;-146.49;100.00
59110;BME280;44895;47.438;18.978;2022-07-22T04:26:44;67901.72;;;-146.49;100.00
59110;BME280;44895;47.438;18.978;2022-07-22T04:30:46;67901.72;;;-146.49;100.00
59110;BME280;44895;47.438;18.978;2022-07-22T04:34:48;67901.72;;;-146.49;100.00
59110;BME280;44895;47.438;18.978;2022-07-22T04:38:50;67901.72;;;-146.49;100.00
59110;BME280;44895;47.438;18.978;2022-07-22T04:42:53;67901.72;;;-146.49;100.00
59110;BME280;44895;47.438;18.978;2022-07-22T04:46:55;67901.72;;;-146.49;100.00
59110;BME280;44895;47.438;18.978;2022-07-22T04:50:58;67901.72;;;-146.49;100.00
59110;BME280;44895;47.438;18.978;2022-07-22T04:55:01;67901.72;;;-146.49;100.00
59110;BME280;44895;47.438;18.978;2022-07-22T04:59:03;67901.72;;;-146.49;100.00
59110;BME280;44895;47.438;18.978;2022-07-22T05:03:07;67901.72;;;-146.49;100.00
59110;BME280;44895;47.438;18.978;2022-07-22T05:07:10;67901.72;;;-146.49;100.00
59110;BME280;44895;47.438;18.978;2022-07-22T05:11:13;67901.72;;;-146.49;100.00
59110;BME280;44895;47.438;18.978;2022-07-22T05:15:15;67901.72;;;-146.49;100.00
59110;BME280;44895;47.438;18.978;2022-07-22T05:19:18;67901.72;;;-146.49;100.00
59110;BME280;44895;47.438;18.978;2022-07-22T05:23:21;67901.72;;;-146.49;100.00
59110;BME280;44895;47.438;18.978;2022-07-22T05:27:25;67901.72;;;-146.49;100.00
59110;BME280;44895;47.438;18.978;2022-07-22T05:31:27;67901.72;;;-146.49;100.00
59110;BME280;44895;47.438;18.978;2022-07-22T05:35:29;67901.72;;;-146.49;100.00
59110;BME280;44895;47.438;18.978;2022-07-22T05:39:31;67901.72;;;-146.49;100.00
59110;BME280;44895;47.438;18.978;2022-07-22T05:43:34;67901.72;;;-146.49;100.00
59110;BME280;44895;47.438;18.978;2022-07-22T05:47:39;67901.72;;;-146.49;100.00
59110;BME280;44895;47.438;18.978;2022-07-22T05:51:41;67901.72;;;-146.49;100.00
59110;BME280;44895;47.438;18.978;2022-07-22T05:55:44;67901.72;;;-146.49;100.00
59110;BME280;44895;47.438;18.978;2022-07-22T05:59:46;67901.72;;;-146.49;100.00
59110;BME280;44895;47.438;18.978;2022-07-22T06:03:49;67901.72;;;-146.49;100.00
59110;BME280;44895;47.438;18.978;2022-07-22T06:07:52;67901.72;;;-146.49;100.00
59110;BME280;44895;47.438;18.978;2022-07-22T06:12:07;67901.72;;;-146.49;100.00
59110;BME280;44895;47.438;18.978;2022-07-22T06:16:10;67901.72;;;-146.49;100.00
59110;BME280;44895;47.438;18.978;2022-07-22T06:20:15;67901.72;;;-146.49;100.00
59110;BME280;44895;47.438;18.978;2022-07-22T06:24:17;67901.72;;;-146.49;100.00
59110;BME280;44895;47.438;18.978;2022-07-22T06:28:19;67901.72;;;-146.49;100.00
59110;BME280;44895;47.438;18.978;2022-07-22T06:32:21;67901.72;;;-146.49;100.00
59110;BME280;44895;47.438;18.978;2022-07-22T06:36:26;67901.72;;;-146.49;100.00
59110;BME280;44895;47.438;18.978;2022-07-22T06:40:27;67901.72;;;-146.49;100.00
59110;BME280;44895;47.438;18.978;2022-07-22T06:44:54;67901.72;;;-146.49;100.00
59110;BME280;44895;47.438;18.978;2022-07-22T06:49:19;67901.72;;;-146.49;100.00
59110;BME280;44895;47.438;18.978;2022-07-22T06:53:23;67901.72;;;-146.49;100.00
59110;BME280;44895;47.438;18.978;2022-07-22T06:57:26;67901.72;;;-146.49;100.00
59110;BME280;44895;47.438;18.978;2022-07-22T07:01:28;67901.72;;;-146.49;100.00
59110;BME280;44895;47.438;18.978;2022-07-22T07:05:35;67901.72;;;-146.49;100.00
59110;BME280;44895;47.438;18.978;2022-07-22T07:09:38;67901.72;;;-146.49;100.00
59110;BME280;44895;47.438;18.978;2022-07-22T07:13:53;67901.72;;;-146.49;100.00
59110;BME280;44895;47.438;18.978;2022-07-22T07:17:56;67901.72;;;-146.49;100.00
59110;BME280;44895;47.438;18.978;2022-07-22T07:21:58;67901.72;;;-146.49;100.00
59110;BME280;44895;47.438;18.978;2022-07-22T07:26:04;67901.72;;;-146.49;100.00
59110;BME280;44895;47.438;18.978;2022-07-22T07:30:07;67901.72;;;-146.49;100.00
59110;BME280;44895;47.438;18.978;2022-07-22T07:34:11;67901.72;;;-146.49;100.00
59110;BME280;44895;47.438;18.978;2022-07-22T07:38:13;67901.72;;;-146.49;100.00
59110;BME280;44895;47.438;18.978;2022-07-22T07:42:17;67901.72;;;-146.49;100.00
59110;BME280;44895;47.438;18.978;2022-07-22T07:46:19;67901.72;;;-146.49;100.00
59110;BME280;44895;47.438;18.978;2022-07-22T07:50:21;67901.72;;;-146.49;100.00
59110;BME280;44895;47.438;18.978;2022-07-22T07:54:24;67901.72;;;-146.49;100.00
59110;BME280;44895;47.438;18.978;2022-07-22T07:58:26;67901.72;;;-146.49;100.00
59110;BME280;44895;47.438;18.978;2022-07-22T08:02:30;67901.72;;;-146.49;100.00
59110;BME280;44895;47.438;18.978;2022-07-22T08:06:32;67901.72;;;-146.49;100.00
59110;BME280;44895;47.438;18.978;2022-07-22T08:10:35;67901.72;;;-146.49;100.00
59110;BME280;44895;47.438;18.978;2022-07-22T08:14:47;67901.72;;;-146.49;100.00
59110;BME280;44895;47.438;18.978;2022-07-22T08:19:27;67901.72;;;-146.49;100.00
59110;BME280;44895;47.438;18.978;2022-07-22T08:23:29;67901.72;;;-146.49;100.00
59110;BME280;44895;47.438;18.978;2022-07-22T08:27:31;67901.72;;;-146.49;100.00
59110;BME280;44895;47.438;18.978;2022-07-22T08:31:34;67901.72;;;-146.49;100.00
59110;BME280;44895;47.438;18.978;2022-07-22T08:35:41;67901.72;;;-146.49;100.00
59110;BME280;44895;47.438;18.978;2022-07-22T08:39:44;67901.72;;;-146.49;100.00
59110;BME280;44895;47.438;18.978;2022-07-22T08:43:48;67901.72;;;-146.49;100.00
59110;BME280;44895;47.438;18.978;2022-07-22T08:47:51;67901.72;;;-146.49;100.00
59110;BME280;44895;47.438;18.978;2022-07-22T08:52:14;67901.72;;;-146.49;100.00
59110;BME280;44895;47.438;18.978;2022-07-22T08:56:20;67901.72;;;-146.49;100.00
59110;BME280;44895;47.438;18.978;2022-07-22T09:00:23;67901.72;;;-146.49;100.00
59110;BME280;44895;47.438;18.978;2022-07-22T09:04:26;67901.72;;;-146.49;100.00
59110;BME280;44895;47.438;18.978;2022-07-22T09:08:29;67901.72;;;-146.49;100.00
59110;BME280;44895;47.438;18.978;2022-07-22T09:13:04;67901.72;;;-146.49;100.00
59110;BME280;44895;47.438;18.978;2022-07-22T09:17:36;67901.72;;;-146.49;100.00
59110;BME280;44895;47.438;18.978;2022-07-22T09:22:29;67901.72;;;-146.49;100.00
59110;BME280;44895;47.438;18.978;2022-07-22T09:26:39;67901.72;;;-146.49;100.00
59110;BME280;44895;47.438;18.978;2022-07-22T09:31:00;67901.72;;;-146.49;100.00
59110;BME280;44895;47.438;18.978;2022-07-22T09:35:06;67901.72;;;-146.49;100.00
59110;BME280;44895;47.438;18.978;2022-07-22T09:39:27;67901.72;;;-146.49;100.00
59110;BME280;44895;47.438;18.978;2022-07-22T09:43:41;67901.72;;;-146.49;100.00
59110;BME280;44895;47.438;18.978;2022-07-22T09:47:44;67901.72;;;-146.49;100.00
59110;BME280;44895;47.438;18.978;2022-07-22T09:52:05;67901.72;;;-146.49;100.00
59110;BME280;44895;47.438;18.978;2022-07-22T09:56:27;67901.72;;;-146.49;100.00
59110;BME280;44895;47.438;18.978;2022-07-22T10:00:32;67901.72;;;-146.49;100.00
59110;BME280;44895;47.438;18.978;2022-07-22T10:04:35;67901.72;;;-146.49;100.00
59110;BME280;44895;47.438;18.978;2022-07-22T10:08:42;67901.72;;;-146.49;100.00
59110;BME280;44895;47.438;18.978;2022-07-22T10:12:45;67901.72;;;-146.49;100.00
59110;BME280;44895;47.438;18.978;2022-07-22T10:16:49;67901.72;;;-146.49;100.00
59110;BME280;44895;47.438;18.978;2022-07-22T10:21:01;67901.72;;;-146.49;100.00
59110;BME280;44895;47.438;18.978;2022-07-22T10:25:11;67901.72;;;-146.49;100.00
59110;BME280;44895;47.438;18.978;2022-07-22T10:33:29;67901.72;;;-146.49;100.00
59110;BME280;44895;47.438;18.978;2022-07-22T10:37:37;67901.72;;;-146.49;100.00
59110;BME280;44895;47.438;18.978;2022-07-22T10:41:46;67901.72;;;-146.49;100.00
59110;BME280;44895;47.438;18.978;2022-07-22T10:45:56;67901.72;;;-146.49;100.00
59110;BME280;44895;47.438;18.978;2022-07-22T10:59:18;67901.72;;;-146.49;100.00
59110;BME280;44895;47.438;18.978;2022-07-22T11:03:25;67901.72;;;-146.49;100.00
59110;BME280;44895;47.438;18.978;2022-07-22T11:07:28;67901.72;;;-146.49;100.00
59110;BME280;44895;47.438;18.978;2022-07-22T11:15:35;67901.72;;;-146.49;100.00
59110;BME280;44895;47.438;18.978;2022-07-22T11:19:50;67901.72;;;-146.49;100.00
59110;BME280;44895;47.438;18.978;2022-07-22T11:23:53;67901.72;;;-146.49;100.00
59110;BME280;44895;47.438;18.978;2022-07-22T11:27:56;67901.72;;;-146.49;100.00
59110;BME280;44895;47.438;18.978;2022-07-22T11:32:05;67901.72;;;-146.49;100.00
59110;BME280;44895;47.438;18.978;2022-07-22T11:36:11;67901.72;;;-146.49;100.00
59110;BME280;44895;47.438;18.978;2022-07-22T11:40:17;67901.72;;;-146.49;100.00
59110;BME280;44895;47.438;18.978;2022-07-22T11:44:19;67901.72;;;-146.49;100.00
59110;BME280;44895;47.438;18.978;2022-07-22T11:48:22;67901.72;;;-146.49;100.00
59110;BME280;44895;47.438;18.978;2022-07-22T11:52:28;67901.72;;;-146.49;100.00
59110;BME280;44895;47.438;18.978;2022-07-22T11:56:31;67901.72;;;-146.49;100.00
59110;BME280;44895;47.438;18.978;2022-07-22T12:00:34;67901.72;;;-146.49;100.00
59110;BME280;44895;47.438;18.978;2022-07-22T12:04:38;67901.72;;;-146.49;100.00
59110;BME280;44895;47.438;18.978;2022-07-22T12:08:43;67901.72;;;-146.49;100.00
59110;BME280;44895;47.438;18.978;2022-07-22T12:12:46;67901.72;;;-146.49;100.00
59110;BME280;44895;47.438;18.978;2022-07-22T12:21:07;67901.72;;;-146.49;100.00
59110;BME280;44895;47.438;18.978;2022-07-22T12:25:10;67901.72;;;-146.49;100.00
59110;BME280;44895;47.438;18.978;2022-07-22T12:29:16;67901.72;;;-146.49;100.00
59110;BME280;44895;47.438;18.978;2022-07-22T12:33:22;67901.72;;;-146.49;100.00
59110;BME280;44895;47.438;18.978;2022-07-22T12:37:32;67901.72;;;-146.49;100.00
59110;BME280;44895;47.438;18.978;2022-07-22T12:41:43;67901.72;;;-146.49;100.00
59110;BME280;44895;47.438;18.978;2022-07-22T12:46:01;67901.72;;;-146.49;100.00
59110;BME280;44895;47.438;18.978;2022-07-22T12:54:21;67901.72;;;-146.49;100.00
59110;BME280;44895;47.438;18.978;2022-07-22T12:58:24;67901.72;;;-146.49;100.00
59110;BME280;44895;47.438;18.978;2022-07-22T13:02:27;67901.72;;;-146.49;100.00
59110;BME280;44895;47.438;18.978;2022-07-22T13:06:29;67901.72;;;-146.49;100.00
59110;BME280;44895;47.438;18.978;2022-07-22T13:10:32;67901.72;;;-146.49;100.00
59110;BME280;44895;47.438;18.978;2022-07-22T13:14:35;67901.72;;;-146.49;100.00
59110;BME280;44895;47.438;18.978;2022-07-22T13:18:37;67901.72;;;-146.49;100.00
59110;BME280;44895;47.438;18.978;2022-07-22T13:22:39;67901.72;;;-146.49;100.00
59110;BME280;44895;47.438;18.978;2022-07-22T13:26:41;67901.72;;;-146.49;100.00
59110;BME280;44895;47.438;18.978;2022-07-22T13:30:44;67901.72;;;-146.49;100.00
59110;BME280;44895;47.438;18.978;2022-07-22T13:34:46;67901.72;;;-146.49;100.00
59110;BME280;44895;47.438;18.978;2022-07-22T13:38:49;67901.72;;;-146.49;100.00
59110;BME280;44895;47.438;18.978;2022-07-22T13:42:51;67901.72;;;-146.49;100.00
59110;BME280;44895;47.438;18.978;2022-07-22T13:46:53;67901.72;;;-146.49;100.00
59110;BME280;44895;47.438;18.978;2022-07-22T13:50:55;67901.72;;;-146.49;100.00
59110;BME280;44895;47.438;18.978;2022-07-22T13:54:57;67901.72;;;-146.49;100.00
59110;BME280;44895;47.438;18.978;2022-07-22T13:59:00;67901.72;;;-146.49;100.00
59110;BME280;44895;47.438;18.978;2022-07-22T14:03:04;67901.72;;;-146.49;100.00
59110;BME280;44895;47.438;18.978;2022-07-22T14:07:06;67901.72;;;-146.49;100.00
59110;BME280;44895;47.438;18.978;2022-07-22T14:11:09;67901.72;;;-146.49;100.00
59110;BME280;44895;47.438;18.978;2022-07-22T14:15:11;67901.72;;;-146.49;100.00
59110;BME280;44895;47.438;18.978;2022-07-22T14:19:13;67901.72;;;-146.49;100.00
59110;BME280;44895;47.438;18.978;2022-07-22T14:23:16;67901.72;;;-146.49;100.00
59110;BME280;44895;47.438;18.978;2022-07-22T14:27:23;67901.72;;;-146.49;100.00
59110;BME280;44895;47.438;18.978;2022-07-22T14:31:25;67901.72;;;-146.49;100.00
59110;BME280;44895;47.438;18.978;2022-07-22T14:35:27;67901.72;;;-146.49;100.00
59110;BME280;44895;47.438;18.978;2022-07-22T14:39:30;67901.72;;;-146.49;100.00
59110;BME280;44895;47.438;18.978;2022-07-22T14:43:33;67901.72;;;-146.49;100.00
59110;BME280;44895;47.438;18.978;2022-07-22T14:47:36;67901.72;;;-146.49;100.00
59110;BME280;44895;47.438;18.978;2022-07-22T14:51:38;67901.72;;;-146.49;100.00
59110;BME280;44895;47.438;18.978;2022-07-22T14:55:41;67901.72;;;-146.49;100.00
59110;BME280;44895;47.438;18.978;2022-07-22T14:59:43;67901.72;;;-146.49;100.00
59110;BME280;44895;47.438;18.978;2022-07-22T15:03:45;67901.72;;;-146.49;100.00
59110;BME280;44895;47.438;18.978;2022-07-22T15:07:48;67901.72;;;-146.49;100.00
59110;BME280;44895;47.438;18.978;2022-07-22T15:11:50;67901.72;;;-146.49;100.00
59110;BME280;44895;47.438;18.978;2022-07-22T15:15:54;67901.72;;;-146.49;100.00
59110;BME280;44895;47.438;18.978;2022-07-22T15:19:57;67901.72;;;-146.49;100.00
59110;BME280;44895;47.438;18.978;2022-07-22T15:23:59;67901.72;;;-146.49;100.00
59110;BME280;44895;47.438;18.978;2022-07-22T15:28:01;67901.72;;;-146.49;100.00
59110;BME280;44895;47.438;18.978;2022-07-22T15:32:03;67901.72;;;-146.49;100.00
59110;BME280;44895;47.438;18.978;2022-07-22T15:36:06;67901.72;;;-146.49;100.00
59110;BME280;44895;47.438;18.978;2022-07-22T15:40:09;67901.72;;;-146.49;100.00
59110;BME280;44895;47.438;18.978;2022-07-22T15:44:13;67901.72;;;-146.49;100.00
59110;BME280;44895;47.438;18.978;2022-07-22T15:48:15;67901.72;;;-146.49;100.00
59110;BME280;44895;47.438;18.978;2022-07-22T15:52:17;67901.72;;;-146.49;100.00
59110;BME280;44895;47.438;18.978;2022-07-22T15:56:19;67901.72;;;-146.49;100.00
59110;BME280;44895;47.438;18.978;2022-07-22T16:00:21;67901.72;;;-146.49;100.00
59110;BME280;44895;47.438;18.978;2022-07-22T16:04:24;67901.72;;;-146.49;100.00
59110;BME280;44895;47.438;18.978;2022-07-22T16:08:26;67901.72;;;-146.49;100.00
59110;BME280;44895;47.438;18.978;2022-07-22T16:12:28;67901.72;;;-146.49;100.00
59110;BME280;44895;47.438;18.978;2022-07-22T16:16:30;67901.72;;;-146.49;100.00
59110;BME280;44895;47.438;18.978;2022-07-22T16:20:33;67901.72;;;-146.49;100.00
59110;BME280;44895;47.438;18.978;2022-07-22T16:24:34;67901.72;;;-146.49;100.00
59110;BME280;44895;47.438;18.978;2022-07-22T16:28:37;67901.72;;;-146.49;100.00
59110;BME280;44895;47.438;18.978;2022-07-22T16:32:45;67901.72;;;-146.49;100.00
59110;BME280;44895;47.438;18.978;2022-07-22T16:36:47;67901.72;;;-146.49;100.00
59110;BME280;44895;47.438;18.978;2022-07-22T16:40:50;67901.72;;;-146.49;100.00
59110;BME280;44895;47.438;18.978;2022-07-22T16:44:52;67901.72;;;-146.49;100.00
59110;BME280;44895;47.438;18.978;2022-07-22T16:48:54;67901.72;;;-146.49;100.00
59110;BME280;44895;47.438;18.978;2022-07-22T16:52:57;67901.72;;;-146.49;100.00
59110;BME280;44895;47.438;18.978;2022-07-22T16:56:59;67901.72;;;-146.49;100.00
59110;BME280;44895;47.438;18.978;2022-07-22T17:01:02;67901.72;;;-146.49;100.00
59110;BME280;44895;47.438;18.978;2022-07-22T17:05:05;67901.72;;;-146.49;100.00
59110;BME280;44895;47.438;18.978;2022-07-22T17:09:07;67901.72;;;-146.49;100.00
59110;BME280;44895;47.438;18.978;2022-07-22T17:13:10;67901.72;;;-146.49;100.00
59110;BME280;44895;47.438;18.978;2022-07-22T17:17:12;67901.72;;;-146.49;100.00
59110;BME280;44895;47.438;18.978;2022-07-22T17:21:14;67901.72;;;-146.49;100.00
59110;BME280;44895;47.438;18.978;2022-07-22T17:25:16;67901.72;;;-146.49;100.00
59110;BME280;44895;47.438;18.978;2022-07-22T17:29:19;67901.72;;;-146.49;100.00
59110;BME280;44895;47.438;18.978;2022-07-22T17:33:21;67901.72;;;-146.49;100.00
59110;BME280;44895;47.438;18.978;2022-07-22T17:37:23;67901.72;;;-146.49;100.00
59110;BME280;44895;47.438;18.978;2022-07-22T17:41:25;67901.72;;;-146.49;100.00
59110;BME280;44895;47.438;18.978;2022-07-22T17:45:27;67901.72;;;-146.49;100.00
59110;BME280;44895;47.438;18.978;2022-07-22T17:49:29;67901.72;;;-146.49;100.00
59110;BME280;44895;47.438;18.978;2022-07-22T17:53:31;67901.72;;;-146.49;100.00
59110;BME280;44895;47.438;18.978;2022-07-22T17:57:34;67901.72;;;-146.49;100.00
59110;BME280;44895;47.438;18.978;2022-07-22T18:01:36;67901.72;;;-146.49;100.00
59110;BME280;44895;47.438;18.978;2022-07-22T18:05:41;67901.72;;;-146.49;100.00
59110;BME280;44895;47.438;18.978;2022-07-22T18:09:43;67901.72;;;-146.49;100.00
59110;BME280;44895;47.438;18.978;2022-07-22T18:13:45;67901.72;;;-146.49;100.00
59110;BME280;44895;47.438;18.978;2022-07-22T18:17:47;67901.72;;;-146.49;100.00
59110;BME280;44895;47.438;18.978;2022-07-22T18:21:49;67901.72;;;-146.49;100.00
59110;BME280;44895;47.438;18.978;2022-07-22T18:25:51;67901.72;;;-146.49;100.00
59110;BME280;44895;47.438;18.978;2022-07-22T18:29:53;67901.72;;;-146.49;100.00
59110;BME280;44895;47.438;18.978;2022-07-22T18:33:56;67901.72;;;-146.49;100.00
59110;BME280;44895;47.438;18.978;2022-07-22T18:37:58;67901.72;;;-146.49;100.00
59110;BME280;44895;47.438;18.978;2022-07-22T18:42:01;67901.72;;;-146.49;100.00
59110;BME280;44895;47.438;18.978;2022-07-22T18:46:04;67901.72;;;-146.49;100.00
59110;BME280;44895;47.438;18.978;2022-07-22T20:02:39;99935.25;;;27.18;49.05
59110;BME280;44895;47.438;18.978;2022-07-22T20:05:43;99933.28;;;27.15;49.51
59110;BME280;44895;47.438;18.978;2022-07-22T20:08:47;99935.44;;;26.93;50.53
59110;BME280;44895;47.438;18.978;2022-07-22T20:11:51;99937.78;;;26.98;50.65
59110;BME280;44895;47.438;18.978;2022-07-22T20:14:55;99933.91;;;26.88;50.87
59110;BME280;44895;47.438;18.978;2022-07-22T20:17:58;99932.34;;;26.83;51.43
59110;BME280;44895;47.438;18.978;2022-07-22T20:21:02;99930.75;;;26.82;51.88
59110;BME280;44895;47.438;18.978;2022-07-22T20:24:06;99926.88;;;26.62;52.86
59110;BME280;44895;47.438;18.978;2022-07-22T20:27:10;99929.38;;;26.45;53.27
59110;BME280;44895;47.438;18.978;2022-07-22T20:30:13;99926.19;;;26.43;53.38
59110;BME280;44895;47.438;18.978;2022-07-22T20:33:17;99929.00;;;26.36;53.82
59110;BME280;44895;47.438;18.978;2022-07-22T20:36:21;99924.66;;;26.35;54.26
59110;BME280;44895;47.438;18.978;2022-07-22T20:39:24;99928.63;;;26.37;55.03
59110;BME280;44895;47.438;18.978;2022-07-22T20:42:28;99923.47;;;26.32;54.72
59110;BME280;44895;47.438;18.978;2022-07-22T20:45:32;99928.69;;;26.23;54.99
59110;BME280;44895;47.438;18.978;2022-07-22T20:48:35;99931.50;;;26.16;55.69
59110;BME280;44895;47.438;18.978;2022-07-22T20:51:39;99937.03;;;26.23;55.69
59110;BME280;44895;47.438;18.978;2022-07-22T20:54:43;99933.03;;;26.28;55.66
59110;BME280;44895;47.438;18.978;2022-07-22T20:57:47;99932.69;;;26.15;56.56
59110;BME280;44895;47.438;18.978;2022-07-22T21:00:51;99935.91;;;26.10;57.05
59110;BME280;44895;47.438;18.978;2022-07-22T21:03:54;99929.53;;;26.13;56.63
59110;BME280;44895;47.438;18.978;2022-07-22T21:06:58;99932.31;;;26.05;56.94
59110;BME280;44895;47.438;18.978;2022-07-22T21:10:03;99930.75;;;25.90;57.71
59110;BME280;44895;47.438;18.978;2022-07-22T21:13:07;99934.78;;;25.85;57.80
59110;BME280;44895;47.438;18.978;2022-07-22T21:16:10;99935.97;;;25.84;58.14
59110;BME280;44895;47.438;18.978;2022-07-22T21:19:14;99932.41;;;25.77;58.05
59110;BME280;44895;47.438;18.978;2022-07-22T21:22:19;99935.59;;;25.71;58.28
59110;BME280;44895;47.438;18.978;2022-07-22T21:25:24;99936.38;;;25.65;58.14
59110;BME280;44895;47.438;18.978;2022-07-22T21:28:28;99934.81;;;25.60;59.09
59110;BME280;44895;47.438;18.978;2022-07-22T21:31:31;99939.97;;;25.51;59.25
59110;BME280;44895;47.438;18.978;2022-07-22T21:34:35;99943.94;;;25.57;58.55
59110;BME280;44895;47.438;18.978;2022-07-22T21:37:39;99939.19;;;25.36;59.76
59110;BME280;44895;47.438;18.978;2022-07-22T21:40:42;99939.19;;;25.32;60.44